Time;durP1;ratioP1;P1;durP2;ratioP2;P2;SDS_P1;SDS_P2;PMS_P1;PMS_P2;Temp;Humidity;BMP_temperature;BMP_pressure;BME280_temperature;BME280_humidity;BME280_pressure;Samples;Min_cycle;Max_cycle;Signal;HPM_P1;HPM_P2
2021/09/08 00:00:38;;;;;;;12.10;10.47;;;13.80;99.90;;;;;;5051040;28;20459;-68
2021/09/08 00:03:06;;;;;;;10.47;9.40;;;13.70;99.90;;;;;;5053445;28;20498;-68
2021/09/08 00:05:33;;;;;;;11.10;8.97;;;13.70;99.90;;;;;;5053677;28;20462;-68
2021/09/08 00:07:59;;;;;;;12.20;10.77;;;13.70;99.90;;;;;;5053735;28;20475;-68
2021/09/08 00:10:26;;;;;;;14.23;9.47;;;13.70;99.90;;;;;;5053561;28;20490;-68
2021/09/08 00:12:53;;;;;;;11.67;10.47;;;13.70;99.90;;;;;;5053477;28;20455;-68
2021/09/08 00:15:20;;;;;;;13.07;10.97;;;13.60;99.90;;;;;;5053384;28;20463;-68
2021/09/08 00:17:47;;;;;;;11.70;10.07;;;13.60;99.90;;;;;;5053688;28;20482;-68
2021/09/08 00:20:15;;;;;;;14.20;10.77;;;13.60;99.90;;;;;;5053510;28;20470;-68
2021/09/08 00:22:43;;;;;;;11.97;10.70;;;13.60;99.90;;;;;;5052886;28;20517;-68
2021/09/08 00:25:11;;;;;;;10.67;9.57;;;13.50;99.90;;;;;;5053337;28;20459;-68
2021/09/08 00:27:38;;;;;;;15.03;11.13;;;13.50;99.90;;;;;;5053294;28;20487;-68
2021/09/08 00:30:06;;;;;;;13.70;10.70;;;13.50;99.90;;;;;;5053303;28;20463;-68
2021/09/08 00:32:34;;;;;;;14.47;10.40;;;13.50;99.90;;;;;;5052768;28;20459;-68
2021/09/08 00:35:01;;;;;;;11.90;10.70;;;13.50;99.90;;;;;;5053108;28;20969;-68
2021/09/08 00:37:29;;;;;;;13.60;10.57;;;13.50;99.90;;;;;;5053352;28;20506;-68
2021/09/08 00:39:55;;;;;;;14.50;10.80;;;13.50;99.90;;;;;;5053141;28;20464;-68
2021/09/08 00:42:22;;;;;;;10.73;9.70;;;13.40;99.90;;;;;;5052883;28;20463;-68
2021/09/08 00:44:49;;;;;;;13.10;11.70;;;13.40;99.90;;;;;;5052892;28;20455;-67
2021/09/08 00:47:17;;;;;;;13.33;10.90;;;13.40;99.90;;;;;;5053069;28;20479;-68
2021/09/08 00:49:45;;;;;;;12.47;10.70;;;13.40;99.90;;;;;;5052856;28;20463;-68
2021/09/08 00:52:13;;;;;;;12.73;10.33;;;13.40;99.90;;;;;;5052292;28;20563;-68
2021/09/08 00:54:45;;;;;;;12.43;10.87;;;13.40;99.90;;;;;;5052810;28;20628;-68
2021/09/08 00:57:13;;;;;;;14.20;11.20;;;13.30;99.90;;;;;;5052724;28;20851;-68
2021/09/08 00:59:41;;;;;;;11.03;9.93;;;13.30;99.90;;;;;;5052876;28;20464;-68
2021/09/08 01:02:08;;;;;;;12.33;10.97;;;13.30;99.90;;;;;;5052177;28;20455;-68
2021/09/08 01:04:35;;;;;;;12.77;10.70;;;13.30;99.90;;;;;;5052641;28;21038;-68
2021/09/08 01:07:04;;;;;;;12.77;11.27;;;13.30;99.90;;;;;;5052312;28;20573;-68
2021/09/08 01:09:31;;;;;;;11.67;10.17;;;13.20;99.90;;;;;;5052704;28;20486;-68
2021/09/08 01:11:59;;;;;;;11.10;10.10;;;13.20;99.90;;;;;;5051202;28;20838;-68
2021/09/08 01:14:27;;;;;;;12.70;10.33;;;13.20;99.90;;;;;;5052459;28;20463;-68
2021/09/08 01:16:55;;;;;;;11.80;10.57;;;13.20;99.90;;;;;;5052555;28;20491;-68
2021/09/08 01:19:22;;;;;;;11.33;9.53;;;13.20;99.90;;;;;;5052435;28;20974;-68
2021/09/08 01:21:50;;;;;;;13.53;10.47;;;13.10;99.90;;;;;;5052191;28;20466;-68
2021/09/08 01:24:18;;;;;;;10.37;9.37;;;13.10;99.90;;;;;;5051774;28;20475;-68
2021/09/08 01:26:47;;;;;;;11.90;9.73;;;13.10;99.90;;;;;;5052436;28;20463;-68
2021/09/08 01:29:14;;;;;;;11.00;9.60;;;13.10;99.90;;;;;;5052070;28;20543;-68
2021/09/08 01:31:41;;;;;;;11.80;9.77;;;13.10;99.90;;;;;;5051859;28;20491;-68
2021/09/08 01:34:08;;;;;;;14.70;10.40;;;13.10;99.90;;;;;;5051694;28;20470;-69
2021/09/08 01:36:38;;;;;;;13.20;10.63;;;13.10;99.90;;;;;;5052112;28;20463;-70
2021/09/08 01:39:05;;;;;;;15.53;10.90;;;13.00;99.90;;;;;;5052226;28;20517;-69
2021/09/08 01:41:34;;;;;;;12.00;10.70;;;13.00;99.90;;;;;;5051651;28;20463;-70
2021/09/08 01:44:01;;;;;;;13.40;10.53;;;13.00;99.90;;;;;;5051848;28;20464;-69
2021/09/08 01:46:28;;;;;;;14.93;10.90;;;13.00;99.90;;;;;;5051923;28;20826;-69
2021/09/08 01:48:55;;;;;;;11.13;10.03;;;12.90;99.90;;;;;;5052005;28;20466;-70
2021/09/08 01:51:21;;;;;;;13.50;10.33;;;12.90;99.90;;;;;;5051404;28;20503;-70
2021/09/08 01:53:48;;;;;;;11.60;9.43;;;12.90;99.90;;;;;;5051727;28;20463;-69
2021/09/08 01:56:16;;;;;;;12.17;10.53;;;12.90;99.90;;;;;;5051856;28;20459;-70
2021/09/08 01:58:45;;;;;;;14.53;11.43;;;12.90;99.90;;;;;;5051560;28;20578;-69
2021/09/08 02:01:12;;;;;;;12.23;10.10;;;12.90;99.90;;;;;;5051563;28;20828;-70
2021/09/08 02:03:39;;;;;;;12.10;10.80;;;12.90;99.90;;;;;;5051064;28;20471;-69
2021/09/08 02:06:19;;;;;;;12.80;10.70;;;12.90;99.90;;;;;;5051594;28;20463;-69
2021/09/08 02:08:46;;;;;;;15.83;13.30;;;12.90;99.90;;;;;;5051310;28;20486;-69
2021/09/08 02:11:13;;;;;;;12.77;11.37;;;12.90;99.90;;;;;;5051604;28;20471;-69
2021/09/08 02:13:39;;;;;;;12.43;11.10;;;12.80;99.90;;;;;;5051050;28;20467;-69
2021/09/08 02:16:07;;;;;;;13.37;11.77;;;12.80;99.90;;;;;;5051333;28;20459;-69
2021/09/08 02:18:34;;;;;;;13.47;12.07;;;12.80;99.90;;;;;;5051345;28;20526;-69
2021/09/08 02:21:01;;;;;;;12.47;11.00;;;12.70;99.90;;;;;;5051088;28;20455;-69
2021/09/08 02:23:28;;;;;;;12.17;10.90;;;12.70;99.90;;;;;;5050694;28;20902;-69
2021/09/08 02:25:55;;;;;;;13.43;10.70;;;12.70;99.90;;;;;;5051102;28;20893;-68
2021/09/08 02:28:21;;;;;;;13.30;11.77;;;12.70;99.90;;;;;;5051428;28;20482;-69
2021/09/08 02:30:48;;;;;;;13.60;12.07;;;12.70;99.90;;;;;;5051024;28;21060;-69
2021/09/08 02:33:17;;;;;;;12.70;11.03;;;12.70;99.90;;;;;;5050604;28;20947;-69
2021/09/08 02:35:44;;;;;;;13.00;11.60;;;12.70;99.90;;;;;;5051226;28;20462;-69
2021/09/08 02:38:11;;;;;;;14.67;12.53;;;12.70;99.90;;;;;;5050845;28;21381;-69
2021/09/08 02:40:38;;;;;;;13.63;10.97;;;12.70;99.90;;;;;;5051226;28;20460;-69
2021/09/08 02:43:05;;;;;;;14.50;12.53;;;12.60;99.90;;;;;;5050290;28;20467;-69
2021/09/08 02:45:32;;;;;;;16.47;12.03;;;12.60;99.90;;;;;;5050907;28;21007;-69
2021/09/08 02:47:58;;;;;;;12.97;11.40;;;12.60;99.90;;;;;;5050662;28;20471;-69
2021/09/08 02:50:27;;;;;;;15.53;10.90;;;12.60;99.90;;;;;;5051126;28;20460;-69
2021/09/08 02:52:54;;;;;;;15.03;11.90;;;12.50;99.90;;;;;;5049940;28;20490;-69
2021/09/08 02:55:21;;;;;;;14.17;10.87;;;12.50;99.90;;;;;;5050841;28;20830;-69
2021/09/08 02:57:49;;;;;;;12.93;11.43;;;12.50;99.90;;;;;;5050901;28;20486;-69
2021/09/08 03:00:17;;;;;;;15.23;11.70;;;12.50;99.90;;;;;;5050375;28;20463;-69
2021/09/08 03:02:43;;;;;;;12.90;11.60;;;12.50;99.90;;;;;;5050171;28;20459;-68
2021/09/08 03:05:11;;;;;;;13.43;11.80;;;12.50;99.90;;;;;;5050353;28;20474;-69
2021/09/08 03:07:39;;;;;;;16.33;11.70;;;12.50;99.90;;;;;;5050652;28;20474;-69
2021/09/08 03:10:06;;;;;;;14.70;11.50;;;12.40;99.90;;;;;;5050278;28;20474;-69
2021/09/08 03:12:33;;;;;;;14.23;10.80;;;12.40;99.90;;;;;;5050224;28;20487;-69
2021/09/08 03:14:59;;;;;;;13.10;11.70;;;12.40;99.90;;;;;;5050243;28;20868;-69
2021/09/08 03:17:26;;;;;;;14.50;12.73;;;12.40;99.90;;;;;;5050528;28;20484;-69
2021/09/08 03:19:53;;;;;;;18.30;11.90;;;12.40;99.90;;;;;;5050579;28;20464;-69
2021/09/08 03:22:20;;;;;;;11.83;10.50;;;12.40;99.90;;;;;;5049994;28;20831;-69
2021/09/08 03:24:48;;;;;;;14.90;11.40;;;12.30;99.90;;;;;;5050400;28;20466;-69
2021/09/08 03:27:15;;;;;;;12.37;10.87;;;12.30;99.90;;;;;;5050178;28;20855;-69
2021/09/08 03:29:42;;;;;;;12.30;10.93;;;12.30;99.90;;;;;;5050428;28;20463;-69
2021/09/08 03:32:09;;;;;;;16.47;11.60;;;12.30;99.90;;;;;;5049695;28;20487;-69
2021/09/08 03:34:36;;;;;;;16.93;12.03;;;12.30;99.90;;;;;;5049510;28;20947;-69
2021/09/08 03:37:03;;;;;;;16.33;11.90;;;12.30;99.90;;;;;;5047877;28;20479;-69
2021/09/08 03:39:29;;;;;;;13.83;12.10;;;12.30;99.90;;;;;;5044643;28;20459;-69
2021/09/08 03:41:58;;;;;;;18.43;11.60;;;12.20;99.90;;;;;;5046890;28;20463;-69
2021/09/08 03:44:24;;;;;;;13.60;11.37;;;12.20;99.90;;;;;;5045499;28;20451;-69
2021/09/08 03:46:51;;;;;;;12.03;10.73;;;12.20;99.90;;;;;;5048114;28;20475;-69
2021/09/08 03:49:18;;;;;;;12.17;10.93;;;12.20;99.90;;;;;;5046399;28;20451;-69
2021/09/08 03:51:44;;;;;;;13.70;11.40;;;12.20;99.90;;;;;;5043117;28;20484;-69
2021/09/08 03:54:11;;;;;;;13.40;11.33;;;12.20;99.90;;;;;;5047532;28;20455;-69
2021/09/08 03:56:38;;;;;;;14.40;12.10;;;12.20;99.90;;;;;;5045057;28;20462;-69
2021/09/08 03:59:06;;;;;;;13.23;11.10;;;12.20;99.90;;;;;;5047981;28;20470;-68
2021/09/08 04:01:34;;;;;;;14.53;9.90;;;12.10;99.90;;;;;;5052342;28;20460;-68
2021/09/08 04:04:01;;;;;;;13.37;11.23;;;12.20;99.90;;;;;;5051941;28;20498;-69
2021/09/08 04:06:28;;;;;;;12.93;10.70;;;12.20;99.90;;;;;;5050854;28;20455;-69
2021/09/08 04:08:54;;;;;;;19.07;11.97;;;12.20;99.90;;;;;;5053189;28;20701;-68
2021/09/08 04:11:21;;;;;;;13.13;11.73;;;12.20;99.90;;;;;;5053684;28;20466;-68
2021/09/08 04:13:48;;;;;;;15.33;12.50;;;12.10;99.90;;;;;;5042944;28;20481;-68
2021/09/08 04:16:17;;;;;;;14.77;11.80;;;12.10;99.90;;;;;;5041861;28;20467;-68
2021/09/08 04:18:44;;;;;;;16.33;12.00;;;12.10;99.90;;;;;;5042676;28;20494;-69
2021/09/08 04:21:10;;;;;;;13.13;11.70;;;12.10;99.90;;;;;;5043431;28;20468;-68
2021/09/08 04:23:37;;;;;;;14.40;11.40;;;12.00;99.90;;;;;;5042989;28;20448;-68
2021/09/08 04:26:04;;;;;;;16.07;12.57;;;12.00;99.90;;;;;;5042590;28;20460;-68
2021/09/08 04:28:30;;;;;;;12.50;11.20;;;12.00;99.90;;;;;;5043068;28;20532;-68
2021/09/08 04:30:57;;;;;;;13.80;11.40;;;11.90;99.90;;;;;;5050847;28;20462;-68
2021/09/08 04:33:25;;;;;;;12.87;11.57;;;12.00;99.90;;;;;;5048614;28;20507;-68
2021/09/08 04:35:54;;;;;;;14.90;12.30;;;12.00;99.90;;;;;;5051848;28;20456;-68
2021/09/08 04:38:21;;;;;;;12.80;11.50;;;11.90;99.90;;;;;;5051936;28;21076;-68
2021/09/08 04:40:48;;;;;;;14.77;12.50;;;12.00;99.90;;;;;;5051948;28;20877;-68
2021/09/08 04:43:15;;;;;;;13.00;11.67;;;12.00;99.90;;;;;;5052051;28;20483;-68
2021/09/08 04:45:42;;;;;;;12.70;11.35;;;11.90;99.90;;;;;;5052561;28;20885;-68
2021/09/08 04:48:09;;;;;;;19.03;12.33;;;11.90;99.90;;;;;;5051445;28;20221;-68
2021/09/08 04:50:37;;;;;;;14.97;12.10;;;11.90;99.90;;;;;;5052473;28;20463;-68
2021/09/08 04:53:04;;;;;;;12.60;11.40;;;11.90;99.90;;;;;;5051754;28;20529;-68
2021/09/08 04:55:31;;;;;;;15.30;11.87;;;11.90;99.90;;;;;;5052008;28;20466;-68
2021/09/08 04:57:57;;;;;;;14.17;11.33;;;11.90;99.90;;;;;;5052409;28;20491;-68
2021/09/08 05:00:24;;;;;;;12.97;11.60;;;11.90;99.90;;;;;;5052018;28;20867;-69
2021/09/08 05:02:51;;;;;;;14.90;11.83;;;11.80;99.90;;;;;;5051001;28;20460;-68
2021/09/08 05:05:17;;;;;;;13.67;12.17;;;11.80;99.90;;;;;;5052015;28;20463;-69
2021/09/08 05:07:45;;;;;;;14.20;12.10;;;11.90;99.90;;;;;;5052006;28;20491;-69
2021/09/08 05:10:12;;;;;;;17.43;13.80;;;11.90;99.90;;;;;;5131774;22;20501;-71
2021/09/08 05:12:39;;;;;;;16.90;12.43;;;11.80;99.90;;;;;;5070544;28;21017;-71
2021/09/08 05:15:07;;;;;;;15.10;11.20;;;11.80;99.90;;;;;;5072152;28;20463;-71
2021/09/08 05:17:33;;;;;;;15.40;11.80;;;11.80;99.90;;;;;;5071463;28;20479;-71
2021/09/08 05:20:00;;;;;;;14.17;12.03;;;11.80;99.90;;;;;;5072130;28;20466;-71
2021/09/08 05:22:27;;;;;;;14.77;11.53;;;11.80;99.90;;;;;;5071139;28;20477;-71
2021/09/08 05:24:55;;;;;;;13.50;11.40;;;11.80;99.90;;;;;;5071832;28;20465;-71
2021/09/08 05:27:21;;;;;;;13.00;11.30;;;11.90;99.90;;;;;;5071682;28;20482;-71
2021/09/08 05:29:48;;;;;;;14.60;11.20;;;11.90;99.90;;;;;;5071760;28;20462;-71
2021/09/08 05:32:15;;;;;;;13.97;11.87;;;11.90;99.90;;;;;;5071429;28;20489;-71
2021/09/08 05:34:42;;;;;;;13.20;11.10;;;11.90;99.90;;;;;;5071061;28;20960;-71
2021/09/08 05:37:09;;;;;;;14.80;12.87;;;11.90;99.90;;;;;;5071757;28;20482;-71
2021/09/08 05:39:35;;;;;;;15.43;12.03;;;12.00;99.90;;;;;;5071196;28;20466;-71
2021/09/08 05:42:04;;;;;;;15.43;12.90;;;12.00;99.90;;;;;;5071431;28;20461;-72
2021/09/08 05:44:31;;;;;;;17.17;11.03;;;12.00;99.90;;;;;;5071180;28;20462;-71
2021/09/08 05:46:57;;;;;;;13.43;11.70;;;12.00;99.90;;;;;;5071774;28;20489;-71
2021/09/08 05:49:24;;;;;;;14.23;12.03;;;12.00;99.90;;;;;;5072313;28;20866;-71
2021/09/08 05:51:51;;;;;;;13.83;12.00;;;12.10;99.90;;;;;;5071278;28;20458;-71
2021/09/08 05:54:17;;;;;;;15.57;12.23;;;12.10;99.90;;;;;;5071941;28;20463;-71
2021/09/08 05:56:44;;;;;;;14.33;12.07;;;12.20;99.90;;;;;;5071357;28;20463;-71
2021/09/08 05:59:12;;;;;;;14.80;12.27;;;12.20;99.90;;;;;;5071884;28;20462;-71
2021/09/08 06:01:39;;;;;;;14.40;11.67;;;12.30;99.90;;;;;;5071357;28;20462;-71
2021/09/08 06:04:05;;;;;;;16.13;11.73;;;12.30;99.90;;;;;;5071564;28;20461;-71
2021/09/08 06:06:32;;;;;;;14.90;10.97;;;12.30;99.90;;;;;;5071462;28;20462;-71
2021/09/08 06:08:59;;;;;;;13.70;12.13;;;12.40;99.90;;;;;;5071607;28;20475;-71
2021/09/08 06:11:25;;;;;;;13.73;11.90;;;12.40;99.90;;;;;;5071728;28;20954;-71
2021/09/08 06:13:53;;;;;;;16.33;12.97;;;12.50;99.90;;;;;;5070834;28;20979;-71
2021/09/08 06:16:22;;;;;;;15.30;13.20;;;12.60;99.90;;;;;;5071845;28;20512;-71
2021/09/08 06:18:48;;;;;;;13.60;12.00;;;12.60;99.90;;;;;;5071097;28;20489;-72
2021/09/08 06:21:17;;;;;;;21.80;13.00;;;12.70;99.90;;;;;;5071967;28;20459;-71
2021/09/08 06:23:44;;;;;;;13.13;11.50;;;12.80;99.90;;;;;;5070767;28;20513;-71
2021/09/08 06:26:11;;;;;;;13.10;11.80;;;12.80;99.90;;;;;;5071220;28;20458;-71
2021/09/08 06:28:37;;;;;;;17.20;13.53;;;12.90;99.90;;;;;;5071025;28;20551;-71
2021/09/08 06:31:04;;;;;;;13.20;11.70;;;13.00;99.90;;;;;;5071104;28;20950;-71
2021/09/08 06:33:32;;;;;;;13.83;12.33;;;13.10;99.90;;;;;;5070661;28;20482;-71
2021/09/08 06:35:59;;;;;;;14.70;13.10;;;13.20;99.90;;;;;;5070955;28;20485;-71
2021/09/08 06:38:26;;;;;;;15.97;13.13;;;13.30;99.90;;;;;;5070882;28;20490;-71
2021/09/08 06:40:54;;;;;;;15.80;13.30;;;13.40;99.90;;;;;;5070867;28;20466;-72
2021/09/08 06:43:20;;;;;;;14.80;13.00;;;13.50;99.90;;;;;;5070698;28;20466;-72
2021/09/08 06:45:47;;;;;;;14.43;11.90;;;13.70;99.90;;;;;;5070821;28;20804;-72
2021/09/08 06:48:14;;;;;;;14.67;11.97;;;13.80;99.90;;;;;;5070898;28;20478;-72
2021/09/08 06:50:42;;;;;;;15.00;13.50;;;13.90;99.90;;;;;;5070889;28;20462;-71
2021/09/08 06:53:08;;;;;;;16.97;13.13;;;14.00;99.90;;;;;;5070355;28;20486;-71
2021/09/08 06:55:35;;;;;;;16.60;13.70;;;14.20;99.90;;;;;;5070674;28;20458;-71
2021/09/08 06:58:02;;;;;;;15.70;13.50;;;14.30;99.90;;;;;;5070840;28;20482;-71
2021/09/08 07:00:28;;;;;;;16.30;13.30;;;14.40;99.90;;;;;;5070625;28;20833;-71
2021/09/08 07:02:55;;;;;;;13.43;12.00;;;14.60;99.90;;;;;;5049783;28;20464;-71
2021/09/08 07:05:24;;;;;;;16.20;12.17;;;14.70;99.90;;;;;;5050888;28;20456;-71
2021/09/08 07:07:52;;;;;;;14.77;11.27;;;14.80;99.90;;;;;;5050664;28;20518;-71
2021/09/08 07:10:19;;;;;;;14.80;11.40;;;14.90;99.90;;;;;;5049876;28;20463;-71
2021/09/08 07:12:46;;;;;;;15.70;11.63;;;15.10;99.90;;;;;;5050217;28;20491;-73
2021/09/08 07:15:13;;;;;;;13.03;11.73;;;15.20;99.90;;;;;;5050750;28;20463;-74
2021/09/08 07:17:39;;;;;;;14.00;11.43;;;15.40;99.90;;;;;;5050599;28;20482;-74
2021/09/08 07:20:08;;;;;;;13.47;10.73;;;15.60;99.90;;;;;;5050986;28;20463;-71
2021/09/08 07:22:34;;;;;;;12.73;10.00;;;15.60;99.90;;;;;;5049934;28;20788;-71
2021/09/08 07:25:02;;;;;;;10.67;9.13;;;15.80;99.90;;;;;;5050492;28;20463;-72
2021/09/08 07:27:29;;;;;;;10.90;8.87;;;16.00;99.90;;;;;;5050341;28;20479;-71
2021/09/08 07:29:56;;;;;;;9.40;8.43;;;16.10;99.90;;;;;;5050252;28;20455;-72
2021/09/08 07:32:22;;;;;;;9.60;8.50;;;16.30;99.90;;;;;;5049046;28;20463;-71
2021/09/08 07:34:49;;;;;;;9.83;8.73;;;16.40;99.90;;;;;;5048825;28;20482;-71
2021/09/08 07:37:16;;;;;;;8.73;7.87;;;16.60;99.90;;;;;;5048050;28;20483;-71
2021/09/08 07:39:43;;;;;;;10.50;7.93;;;16.70;99.90;;;;;;5048506;28;20459;-71
2021/09/08 07:42:11;;;;;;;9.40;7.40;;;16.90;99.90;;;;;;5047927;28;20470;-71
2021/09/08 07:44:38;;;;;;;8.93;7.93;;;17.10;99.90;;;;;;5047973;28;20467;-71
2021/09/08 07:47:04;;;;;;;9.73;8.10;;;17.20;99.90;;;;;;5048645;28;20484;-71
2021/09/08 07:49:31;;;;;;;9.70;7.83;;;17.40;99.90;;;;;;5048150;28;20470;-71
2021/09/08 07:51:58;;;;;;;11.30;7.77;;;17.60;99.90;;;;;;5049918;28;20808;-71
2021/09/08 07:54:24;;;;;;;9.27;8.10;;;17.70;99.90;;;;;;5049883;28;20489;-71
2021/09/08 07:56:51;;;;;;;9.07;7.93;;;17.80;99.90;;;;;;5050076;28;20479;-71
2021/09/08 07:59:19;;;;;;;8.00;7.20;;;18.00;99.90;;;;;;5050203;28;20467;-71
2021/09/08 08:01:46;;;;;;;8.43;7.63;;;18.10;99.90;;;;;;5050198;28;20517;-71
2021/09/08 08:04:13;;;;;;;9.47;7.50;;;18.20;99.90;;;;;;5049832;28;20466;-71
2021/09/08 08:06:41;;;;;;;8.40;7.53;;;18.40;99.90;;;;;;5050060;28;20459;-71
2021/09/08 08:09:07;;;;;;;8.00;7.10;;;18.50;99.90;;;;;;5050316;28;20753;-71
2021/09/08 08:11:35;;;;;;;9.07;8.17;;;18.70;99.90;;;;;;5049798;28;20474;-71
2021/09/08 08:14:01;;;;;;;8.97;7.60;;;18.80;99.90;;;;;;5049415;28;20540;-71
2021/09/08 08:16:29;;;;;;;8.50;7.10;;;19.00;99.90;;;;;;5048768;28;20482;-71
2021/09/08 08:18:56;;;;;;;9.97;7.53;;;19.00;99.90;;;;;;5069550;28;20463;-71
2021/09/08 08:21:23;;;;;;;8.27;7.40;;;19.10;99.90;;;;;;5070638;28;20945;-71
2021/09/08 08:23:49;;;;;;;8.33;7.43;;;19.20;99.90;;;;;;5073099;28;20871;-71
2021/09/08 08:26:18;;;;;;;8.97;8.07;;;19.40;99.90;;;;;;5073748;28;20467;-71
2021/09/08 08:28:44;;;;;;;8.47;7.57;;;19.50;99.90;;;;;;5073259;28;20479;-71
2021/09/08 08:31:12;;;;;;;8.50;7.30;;;19.70;99.90;;;;;;5074033;28;20492;-71
2021/09/08 08:33:40;;;;;;;8.70;7.80;;;19.90;99.90;;;;;;5072689;28;20521;-72
2021/09/08 08:36:07;;;;;;;9.63;7.60;;;20.00;99.90;;;;;;5073673;28;20469;-72
2021/09/08 08:38:33;;;;;;;7.30;6.60;;;20.10;99.90;;;;;;5072778;28;20832;-71
2021/09/08 08:41:01;;;;;;;8.17;6.97;;;20.20;99.90;;;;;;5072838;28;20455;-71
2021/09/08 08:43:28;;;;;;;8.00;7.30;;;20.30;99.90;;;;;;5063224;28;20471;-71
2021/09/08 08:45:55;;;;;;;8.33;7.23;;;20.40;99.90;;;;;;5050907;28;20862;-71
2021/09/08 08:48:22;;;;;;;9.50;7.10;;;20.50;99.90;;;;;;5052291;28;20487;-71
2021/09/08 08:50:50;;;;;;;8.17;7.40;;;20.60;99.90;;;;;;5051750;28;20466;-71
2021/09/08 08:53:17;;;;;;;8.20;7.27;;;20.70;99.90;;;;;;5051514;28;20495;-71
2021/09/08 08:55:43;;;;;;;8.70;7.60;;;20.90;99.90;;;;;;5052046;28;20459;-71
2021/09/08 08:58:10;;;;;;;8.40;7.60;;;21.00;99.90;;;;;;5052064;28;20494;-71
2021/09/08 09:00:37;;;;;;;7.00;6.40;;;21.10;99.90;;;;;;5052122;28;20467;-71
2021/09/08 09:03:05;;;;;;;9.90;6.73;;;21.10;99.90;;;;;;5050402;28;20860;-71
2021/09/08 09:05:35;;;;;;;9.60;7.43;;;21.20;99.90;;;;;;5049941;28;20521;-71
2021/09/08 09:08:04;;;;;;;6.93;6.30;;;21.20;99.90;;;;;;5051086;28;20484;-71
2021/09/08 09:10:31;;;;;;;7.90;6.80;;;21.30;99.90;;;;;;5051271;28;20468;-71
2021/09/08 09:12:58;;;;;;;7.10;6.40;;;21.30;99.90;;;;;;5050497;28;20467;-71
2021/09/08 09:15:25;;;;;;;7.00;6.40;;;21.50;99.90;;;;;;5050906;28;20468;-71
2021/09/08 09:17:52;;;;;;;7.43;6.67;;;21.50;99.90;;;;;;5051062;28;21077;-71
2021/09/08 09:20:21;;;;;;;7.13;6.33;;;21.70;99.90;;;;;;5050843;28;20946;-71
2021/09/08 09:22:49;;;;;;;8.37;6.30;;;21.80;99.90;;;;;;5050443;28;20471;-71
2021/09/08 09:25:20;;;;;;;7.80;7.00;;;21.90;99.90;;;;;;5050142;28;20468;-71
2021/09/08 09:27:48;;;;;;;8.73;6.90;;;22.00;99.90;;;;;;5050761;28;21042;-71
2021/09/08 09:30:18;;;;;;;7.73;6.50;;;22.20;99.90;;;;;;5050452;28;20463;-71
2021/09/08 09:32:47;;;;;;;7.80;7.00;;;22.30;99.90;;;;;;5049841;28;20463;-71
2021/09/08 09:35:16;;;;;;;7.87;7.17;;;22.40;99.90;;;;;;5050155;28;20455;-71
2021/09/08 09:37:45;;;;;;;7.83;7.03;;;22.50;99.90;;;;;;5050550;28;20476;-71
2021/09/08 09:40:14;;;;;;;7.90;7.20;;;22.60;99.90;;;;;;5050405;28;20525;-71
2021/09/08 09:42:43;;;;;;;7.70;6.83;;;22.70;99.90;;;;;;5049822;28;20485;-71
2021/09/08 09:45:12;;;;;;;11.30;7.80;;;22.70;99.90;;;;;;5049739;28;20456;-71
2021/09/08 09:47:41;;;;;;;8.73;6.90;;;22.80;99.90;;;;;;5049874;28;20491;-71
2021/09/08 09:50:10;;;;;;;8.23;6.53;;;22.90;99.90;;;;;;5049992;28;20455;-71
2021/09/08 09:52:37;;;;;;;8.50;7.40;;;23.00;99.90;;;;;;5048085;28;20463;-71
2021/09/08 09:55:06;;;;;;;8.00;6.80;;;23.00;99.90;;;;;;5049165;28;20481;-71
2021/09/08 09:57:33;;;;;;;7.63;6.60;;;23.20;99.90;;;;;;5051494;28;20479;-71
2021/09/08 10:00:01;;;;;;;7.50;6.73;;;23.30;99.90;;;;;;5051085;28;20463;-71
2021/09/08 10:02:28;;;;;;;7.70;6.67;;;23.40;99.90;;;;;;5049026;28;20464;-71
2021/09/08 10:04:55;;;;;;;11.03;7.00;;;23.50;99.90;;;;;;5030054;28;20460;-71
2021/09/08 10:07:23;;;;;;;7.90;7.10;;;23.60;99.90;;;;;;5029862;28;20476;-72
2021/09/08 10:09:54;;;;;;;8.90;7.00;;;23.70;99.90;;;;;;5036079;28;20481;-72
2021/09/08 10:12:25;;;;;;;8.07;7.27;;;23.80;99.90;;;;;;5048623;28;20463;-71
2021/09/08 10:14:53;;;;;;;7.30;6.57;;;23.90;99.90;;;;;;5037357;28;20479;-71
2021/09/08 10:17:21;;;;;;;8.13;7.33;;;24.00;99.90;;;;;;5049021;28;20970;-71
2021/09/08 10:19:50;;;;;;;7.13;6.50;;;24.10;99.90;;;;;;5048447;28;20471;-72
2021/09/08 10:22:17;;;;;;;9.30;7.63;;;24.20;99.90;;;;;;5028999;28;20821;-72
2021/09/08 10:24:46;;;;;;;8.20;7.40;;;24.30;99.90;;;;;;5029160;28;20487;-71
2021/09/08 10:27:24;;;;;;;7.13;6.43;;;24.50;99.90;;;;;;5030814;28;20856;-72
2021/09/08 10:29:53;;;;;;;7.83;7.13;;;24.50;99.90;;;;;;5030769;28;20472;-72
2021/09/08 10:32:22;;;;;;;8.30;7.50;;;24.50;99.90;;;;;;5038580;28;20463;-72
2021/09/08 10:34:50;;;;;;;7.93;7.13;;;24.60;99.90;;;;;;5050636;28;20829;-72
2021/09/08 10:37:17;;;;;;;7.23;6.53;;;24.60;99.90;;;;;;5050348;28;20517;-72
2021/09/08 10:39:45;;;;;;;7.53;6.77;;;24.70;99.90;;;;;;5050406;28;20459;-72
2021/09/08 10:42:12;;;;;;;6.43;5.83;;;24.70;99.90;;;;;;5049614;28;20460;-72
2021/09/08 10:44:44;;;;;;;8.03;6.93;;;24.80;99.90;;;;;;5041223;28;20456;-72
2021/09/08 10:47:11;;;;;;;7.53;6.83;;;24.90;99.90;;;;;;5038699;28;20571;-72
2021/09/08 10:49:49;;;;;;;7.93;7.07;;;24.80;99.90;;;;;;5038936;28;20456;-72
2021/09/08 10:52:42;;;;;;;7.13;6.53;;;24.90;99.90;;;;;;5037626;28;20466;-72
2021/09/08 10:55:24;;;;;;;7.10;6.40;;;25.00;99.90;;;;;;5040325;28;20509;-72
2021/09/08 10:58:08;;;;;;;7.00;6.30;;;25.10;99.90;;;;;;5040460;28;20897;-72
2021/09/08 11:00:38;;;;;;;7.23;6.53;;;25.10;99.90;;;;;;5040930;28;20459;-72
2021/09/08 11:03:08;;;;;;;7.83;7.13;;;25.20;99.90;;;;;;5040707;28;20460;-72
2021/09/08 11:05:50;;;;;;;6.70;6.07;;;25.30;99.90;;;;;;5040707;28;20459;-72
2021/09/08 11:08:26;;;;;;;7.13;6.50;;;25.40;99.90;;;;;;5040252;28;20482;-72
2021/09/08 11:11:06;;;;;;;7.17;6.47;;;25.50;99.90;;;;;;5109277;23;20490;-67
2021/09/08 11:13:33;;;;;;;7.50;6.80;;;25.60;99.90;;;;;;5063511;28;20490;-68
2021/09/08 11:16:00;;;;;;;10.20;7.07;;;25.60;99.90;;;;;;5058336;28;20957;-68
2021/09/08 11:18:34;;;;;;;7.63;6.87;;;25.60;99.90;;;;;;5042966;28;20955;-67
2021/09/08 11:21:03;;;;;;;7.90;7.20;;;25.70;99.90;;;;;;5039069;28;20509;-68
2021/09/08 11:23:31;;;;;;;8.10;6.47;;;25.70;99.90;;;;;;5038619;28;20465;-67
2021/09/08 11:26:05;;;;;;;7.60;6.90;;;25.80;99.90;;;;;;5040351;28;20459;-67
2021/09/08 11:28:32;;;;;;;7.30;6.67;;;25.90;99.90;;;;;;5040554;28;20838;-68
2021/09/08 11:30:59;;;;;;;6.90;6.30;;;26.00;99.90;;;;;;5038751;28;20468;-68
2021/09/08 11:33:35;;;;;;;9.37;6.83;;;26.00;99.90;;;;;;5038885;28;20465;-67
2021/09/08 11:36:11;;;;;;;8.20;6.77;;;26.10;99.90;;;;;;5038708;28;20456;-67
2021/09/08 11:38:45;;;;;;;7.10;6.40;;;26.20;99.90;;;;;;5040479;28;20471;-67
2021/09/08 11:41:12;;;;;;;9.40;6.83;;;26.20;99.90;;;;;;5040000;28;20467;-67
2021/09/08 11:43:42;;;;;;;7.10;6.43;;;26.30;99.90;;;;;;5038200;28;20464;-67
2021/09/08 11:46:11;;;;;;;7.67;6.77;;;26.30;99.90;;;;;;5038688;28;20463;-67
2021/09/08 11:48:37;;;;;;;6.43;5.83;;;26.30;99.90;;;;;;5040256;28;20475;-67
2021/09/08 11:51:07;;;;;;;7.50;6.13;;;26.40;99.90;;;;;;5038943;28;20462;-68
2021/09/08 11:53:35;;;;;;;6.83;6.07;;;26.40;99.90;;;;;;5037450;28;20952;-67
2021/09/08 11:56:07;;;;;;;7.20;6.60;;;26.40;99.90;;;;;;5039645;28;20463;-67
2021/09/08 11:58:33;;;;;;;7.53;6.40;;;26.50;99.90;;;;;;5043822;28;20541;-68
2021/09/08 12:01:04;;;;;;;8.37;6.53;;;26.50;99.90;;;;;;5042484;28;20460;-67
2021/09/08 12:03:32;;;;;;;6.63;5.70;;;26.50;99.90;;;;;;5041620;28;20798;-68
2021/09/08 12:06:11;;;;;;;6.40;5.90;;;26.60;99.90;;;;;;5042027;28;20468;-68
2021/09/08 12:08:38;;;;;;;6.30;5.70;;;26.80;99.90;;;;;;5041996;28;20545;-67
2021/09/08 12:11:07;;;;;;;7.90;5.97;;;26.70;99.90;;;;;;5042760;28;20467;-67
2021/09/08 12:13:34;;;;;;;5.80;5.40;;;26.80;99.90;;;;;;5043475;28;20459;-67
2021/09/08 12:16:01;;;;;;;7.07;6.37;;;26.80;99.90;;;;;;5041531;28;20483;-68
2021/09/08 12:18:28;;;;;;;6.50;5.90;;;26.90;99.90;;;;;;5042178;28;20484;-67
2021/09/08 12:21:19;;;;;;;6.70;6.10;;;27.00;99.90;;;;;;5043497;28;20459;-68
2021/09/08 12:23:46;;;;;;;7.10;6.40;;;27.00;99.90;;;;;;5042293;28;20963;-67
2021/09/08 12:26:13;;;;;;;7.63;5.70;;;27.10;99.90;;;;;;5041126;28;20919;-67
2021/09/08 12:29:07;;;;;;;6.70;6.10;;;27.10;99.90;;;;;;5041738;28;20478;-68
2021/09/08 12:31:47;;;;;;;8.60;5.90;;;27.10;99.90;;;;;;5043608;28;20861;-67
2021/09/08 12:34:14;;;;;;;5.90;5.40;;;27.20;99.90;;;;;;5042458;28;20855;-68
2021/09/08 12:36:41;;;;;;;6.03;5.43;;;27.20;99.90;;;;;;5041617;28;20464;-68
2021/09/08 12:39:13;;;;;;;9.37;5.37;;;27.30;99.90;;;;;;5041768;28;20455;-68